createdAt,value
2023-02-13T00:00:46.104Z,53.95
2023-02-13T00:03:14.690Z,81.25
2023-02-13T00:05:42.596Z,75.35
2023-02-13T00:08:10.370Z,79.85
2023-02-13T00:10:38.213Z,73.50
2023-02-13T00:13:06.215Z,39.88
2023-02-13T00:15:34.675Z,33.72
2023-02-13T00:18:03.143Z,54.95
2023-02-13T00:20:31.232Z,82.90
2023-02-13T00:23:00.042Z,58.47
2023-02-13T00:25:28.230Z,77.05
2023-02-13T00:27:56.035Z,71.00
2023-02-13T00:30:24.234Z,94.32
2023-02-13T00:32:52.742Z,65.03
2023-02-13T00:35:22.117Z,63.15
2023-02-13T00:37:50.373Z,41.40
2023-02-13T00:40:18.206Z,44.53
2023-02-13T00:42:46.030Z,41.65
2023-02-13T00:45:14.123Z,46.05
2023-02-13T00:47:42.046Z,35.80
2023-02-13T00:50:10.466Z,36.35
2023-02-13T00:52:38.139Z,45.35
2023-02-13T00:55:06.392Z,42.88
2023-02-13T00:57:34.563Z,48.95
2023-02-13T01:00:02.625Z,39.63
2023-02-13T01:02:30.868Z,34.05
2023-02-13T01:04:59.044Z,34.60
2023-02-13T01:07:26.818Z,30.63
2023-02-13T01:09:54.750Z,32.08
2023-02-13T01:12:22.629Z,33.97
2023-02-13T01:14:50.782Z,40.72
2023-02-13T01:17:19.161Z,36.38
2023-02-13T01:19:47.315Z,36.38
2023-02-13T01:22:16.548Z,32.30
2023-02-13T01:24:44.902Z,30.15
2023-02-13T01:27:13.110Z,24.55
2023-02-13T01:29:41.156Z,27.95
2023-02-13T01:32:09.563Z,24.38
2023-02-13T01:34:37.668Z,29.52
2023-02-13T01:37:08.785Z,37.55
2023-02-13T01:39:36.878Z,29.50
2023-02-13T01:42:04.893Z,29.58
2023-02-13T01:44:52.689Z,36.92
2023-02-13T01:47:44.598Z,32.22
2023-02-13T01:52:43.568Z,25.63
2023-02-13T01:55:11.656Z,26.67
2023-02-13T01:57:40.304Z,32.05
2023-02-13T02:00:10.342Z,29.38
2023-02-13T02:02:53.334Z,26.83
2023-02-13T02:05:25.575Z,30.13
2023-02-13T02:07:54.008Z,26.50
2023-02-13T02:10:24.040Z,31.13
2023-02-13T02:13:14.986Z,28.45
2023-02-13T02:15:43.463Z,35.33
2023-02-13T02:18:29.678Z,32.10
2023-02-13T02:21:10.014Z,35.20
2023-02-13T02:24:36.568Z,29.02
2023-02-13T02:27:25.863Z,30.10
2023-02-13T02:30:40.985Z,21.75
2023-02-13T02:33:31.428Z,32.15
2023-02-13T02:36:19.125Z,39.58
2023-02-13T02:39:13.096Z,35.25
2023-02-13T02:41:49.740Z,33.40
2023-02-13T02:44:43.886Z,39.08
2023-02-13T02:47:39.481Z,40.72
2023-02-13T02:50:25.299Z,43.25
2023-02-13T02:53:16.173Z,39.70
2023-02-13T02:56:17.385Z,40.75
2023-02-13T02:59:16.029Z,35.08
2023-02-13T03:02:02.150Z,38.72
2023-02-13T03:05:08.757Z,36.53
2023-02-13T03:07:36.627Z,30.10
2023-02-13T03:10:28.230Z,27.75
2023-02-13T03:13:23.864Z,37.17
2023-02-13T03:16:12.460Z,34.35
2023-02-13T03:19:00.356Z,37.15
2023-02-13T03:22:14.507Z,38.25
2023-02-13T03:25:01.073Z,37.17
2023-02-13T03:28:06.098Z,32.58
2023-02-13T03:31:12.611Z,38.95
2023-02-13T03:33:46.585Z,36.67
2023-02-13T03:36:38.753Z,37.65
2023-02-13T03:39:14.562Z,33.92
2023-02-13T03:42:00.875Z,40.40
2023-02-13T03:44:46.200Z,37.78
2023-02-13T03:47:14.517Z,44.55
2023-02-13T03:50:06.719Z,42.85
2023-02-13T03:52:46.976Z,33.05
2023-02-13T03:55:44.655Z,43.35
2023-02-13T03:58:49.042Z,48.60
2023-02-13T04:01:18.412Z,46.65
2023-02-13T04:03:54.607Z,44.83
2023-02-13T04:06:28.191Z,49.22
2023-02-13T04:08:56.227Z,46.47
2023-02-13T04:11:37.187Z,50.90
2023-02-13T04:14:08.677Z,33.85
2023-02-13T04:16:38.229Z,37.78
2023-02-13T04:19:06.863Z,50.20
2023-02-13T04:21:35.270Z,39.58
2023-02-13T04:24:03.577Z,45.22
2023-02-13T04:26:39.748Z,52.63
2023-02-13T04:29:07.772Z,52.42
2023-02-13T04:31:36.296Z,55.45
2023-02-13T04:34:04.250Z,54.28
2023-02-13T04:36:32.101Z,63.60
2023-02-13T04:39:00.465Z,60.08
2023-02-13T04:41:28.397Z,50.92
2023-02-13T04:43:56.239Z,54.83
2023-02-13T04:46:24.787Z,55.65
2023-02-13T04:48:52.998Z,51.65
2023-02-13T04:51:20.811Z,52.08
2023-02-13T04:53:48.813Z,57.30
2023-02-13T04:56:18.041Z,60.72
2023-02-13T04:58:47.581Z,54.80
2023-02-13T05:01:16.082Z,66.65
2023-02-13T05:03:44.160Z,30.75
2023-02-13T05:06:12.044Z,56.88
2023-02-13T05:08:40.060Z,59.30
2023-02-13T05:11:08.481Z,51.17
2023-02-13T05:13:36.462Z,59.13
2023-02-13T05:16:04.785Z,52.70
2023-02-13T05:18:32.969Z,57.85
2023-02-13T05:21:18.960Z,58.72
2023-02-13T05:23:46.847Z,63.20
2023-02-13T05:26:14.760Z,54.65
2023-02-13T05:29:01.085Z,68.90
2023-02-13T05:31:29.327Z,55.50
2023-02-13T05:33:57.597Z,66.45
2023-02-13T05:36:25.408Z,55.35
2023-02-13T05:38:53.798Z,65.03
2023-02-13T05:41:21.570Z,72.63
2023-02-13T05:43:49.683Z,38.13
2023-02-13T05:46:18.832Z,63.83
2023-02-13T05:48:46.580Z,54.05
2023-02-13T05:51:14.560Z,57.50
2023-02-13T05:53:42.283Z,54.47
2023-02-13T05:56:10.636Z,59.38
2023-02-13T05:58:38.543Z,67.57
2023-02-13T06:01:06.716Z,68.38
2023-02-13T06:03:35.274Z,53.55
2023-02-13T06:06:03.122Z,50.58
2023-02-13T06:08:31.173Z,59.45
2023-02-13T06:10:59.695Z,59.80
2023-02-13T06:13:28.000Z,54.42
2023-02-13T06:15:56.274Z,59.58
2023-02-13T06:18:24.660Z,69.57
2023-02-13T06:20:52.498Z,71.65
2023-02-13T06:23:20.560Z,68.10
2023-02-13T06:25:50.152Z,61.35
2023-02-13T06:28:18.530Z,72.72
2023-02-13T06:30:47.124Z,65.82
2023-02-13T06:33:15.508Z,70.28
2023-02-13T06:35:43.659Z,69.13
2023-02-13T06:38:11.926Z,66.57
2023-02-13T06:40:39.972Z,70.72
2023-02-13T06:43:07.988Z,71.72
2023-02-13T06:45:36.104Z,61.95
2023-02-13T06:48:04.254Z,72.38
2023-02-13T06:50:32.070Z,77.75
2023-02-13T06:53:00.399Z,77.95
2023-02-13T06:55:28.842Z,70.65
2023-02-13T06:57:56.734Z,73.63
2023-02-13T07:00:27.018Z,77.05
2023-02-13T07:02:55.259Z,69.35
2023-02-13T07:05:23.214Z,64.82
2023-02-13T07:07:50.965Z,66.50
2023-02-13T07:10:18.929Z,69.20
2023-02-13T07:12:56.813Z,64.80
2023-02-13T07:15:32.752Z,71.45
2023-02-13T07:18:00.762Z,71.35
2023-02-13T07:20:29.395Z,67.90
2023-02-13T07:23:04.741Z,66.50
2023-02-13T07:25:33.093Z,70.63
2023-02-13T07:28:05.050Z,64.20
2023-02-13T07:30:33.487Z,72.15
2023-02-13T07:33:05.155Z,65.72
2023-02-13T07:35:33.645Z,64.13
2023-02-13T07:38:02.026Z,56.28
2023-02-13T07:40:30.132Z,57.63
2023-02-13T07:43:00.961Z,51.70
2023-02-13T07:45:29.187Z,54.55
2023-02-13T07:47:57.194Z,51.03
2023-02-13T07:50:25.181Z,55.22
2023-02-13T07:52:59.872Z,51.42
2023-02-13T07:55:29.297Z,52.70
2023-02-13T07:57:57.170Z,55.55
2023-02-13T08:00:25.369Z,56.30
2023-02-13T08:02:53.509Z,56.72
2023-02-13T08:05:21.327Z,56.13
2023-02-13T08:07:49.108Z,49.53
2023-02-13T08:10:35.142Z,54.22
2023-02-13T08:13:02.990Z,55.15
2023-02-13T08:15:30.994Z,52.80
2023-02-13T08:18:00.051Z,44.97
2023-02-13T08:20:28.229Z,52.85
2023-02-13T08:23:10.290Z,52.05
2023-02-13T08:25:39.084Z,56.07
2023-02-13T08:28:07.235Z,58.08
2023-02-13T08:30:35.572Z,53.60
2023-02-13T08:33:03.615Z,53.20
2023-02-13T08:35:32.072Z,60.03
2023-02-13T08:38:04.746Z,49.38
2023-02-13T08:43:04.940Z,40.70
2023-02-13T08:45:33.349Z,53.40
2023-02-13T08:48:01.460Z,49.00
2023-02-13T08:50:29.831Z,48.35
2023-02-13T08:52:59.043Z,40.88
2023-02-13T08:55:27.950Z,48.42
2023-02-13T08:57:55.651Z,46.60
2023-02-13T09:00:23.892Z,46.40
2023-02-13T09:02:52.048Z,47.83
2023-02-13T09:05:20.085Z,35.45
2023-02-13T09:07:48.201Z,33.67
2023-02-13T09:10:16.037Z,39.35
2023-02-13T09:12:44.184Z,41.20
2023-02-13T09:15:12.239Z,44.00
2023-02-13T09:17:40.190Z,40.67
2023-02-13T09:20:08.769Z,30.70
2023-02-13T09:22:36.919Z,41.38
2023-02-13T09:25:05.667Z,38.50
2023-02-13T09:27:34.278Z,42.05
2023-02-13T09:30:02.166Z,37.60
2023-02-13T09:32:30.307Z,35.83
2023-02-13T09:34:58.366Z,40.25
2023-02-13T09:37:27.480Z,36.50
2023-02-13T09:39:55.181Z,38.53
2023-02-13T09:42:32.185Z,41.95
2023-02-13T09:45:01.927Z,39.38
2023-02-13T09:47:38.120Z,41.28
2023-02-13T09:50:13.762Z,39.20
2023-02-13T09:52:42.242Z,38.30
2023-02-13T09:55:18.326Z,35.20
2023-02-13T09:57:55.191Z,32.90
2023-02-13T10:00:40.683Z,39.45
2023-02-13T10:03:28.823Z,37.15
2023-02-13T10:06:07.096Z,35.60
2023-02-13T10:09:05.054Z,31.60
2023-02-13T10:12:06.982Z,37.58
2023-02-13T10:14:59.611Z,35.78
2023-02-13T10:22:36.705Z,28.67
2023-02-13T10:25:13.118Z,31.67
2023-02-13T10:27:46.298Z,27.95
2023-02-13T10:30:23.803Z,26.98
2023-02-13T10:33:21.000Z,33.00
2023-02-13T10:36:00.970Z,34.28
2023-02-13T10:38:36.367Z,28.42
2023-02-13T10:41:22.976Z,34.58
2023-02-13T10:44:09.166Z,34.95
2023-02-13T10:47:25.203Z,34.53
2023-02-13T10:50:14.948Z,31.70
2023-02-13T10:53:09.267Z,34.20
2023-02-13T10:55:55.791Z,32.58
2023-02-13T10:58:30.601Z,30.20
2023-02-13T11:01:13.756Z,37.00
2023-02-13T11:03:41.968Z,32.25
2023-02-13T11:06:12.500Z,39.38
2023-02-13T11:08:43.856Z,37.10
2023-02-13T11:11:31.865Z,37.00
2023-02-13T11:14:10.583Z,32.85
2023-02-13T11:16:41.273Z,39.60
2023-02-13T11:19:18.543Z,37.30
2023-02-13T11:21:47.410Z,39.90
2023-02-13T11:24:25.899Z,36.55
2023-02-13T11:26:59.047Z,35.53
2023-02-13T11:29:32.281Z,38.00
2023-02-13T11:32:13.297Z,37.47
2023-02-13T11:34:41.233Z,40.65
2023-02-13T11:37:24.511Z,39.83
2023-02-13T11:39:54.349Z,38.47
2023-02-13T11:42:33.236Z,40.65
2023-02-13T11:45:03.244Z,47.42
2023-02-13T11:47:32.445Z,39.35
2023-02-13T11:50:00.728Z,42.33
2023-02-13T11:52:35.771Z,47.15
2023-02-13T11:55:05.955Z,42.67
2023-02-13T11:57:37.592Z,39.90
2023-02-13T12:00:42.102Z,43.60
2023-02-13T12:03:22.678Z,35.75
2023-02-13T12:06:09.415Z,34.33
2023-02-13T12:08:38.357Z,39.42
2023-02-13T12:11:43.131Z,40.10
2023-02-13T12:14:14.095Z,44.00
2023-02-13T12:16:50.857Z,39.65
2023-02-13T12:19:22.682Z,39.67
2023-02-13T12:21:55.613Z,32.72
2023-02-13T12:24:30.409Z,34.83
2023-02-13T12:27:14.109Z,39.30
2023-02-13T12:30:11.255Z,37.05
2023-02-13T12:32:50.821Z,34.70
2023-02-13T12:36:00.108Z,34.60
2023-02-13T12:38:34.783Z,39.38
2023-02-13T12:41:32.103Z,32.40
2023-02-13T12:44:33.994Z,36.03
2023-02-13T12:47:11.986Z,43.75
2023-02-13T12:50:04.349Z,39.97
2023-02-13T12:52:37.632Z,43.63
2023-02-13T12:55:23.977Z,41.10
2023-02-13T12:58:17.545Z,34.38
2023-02-13T13:01:08.983Z,32.25
2023-02-13T13:04:00.126Z,37.80
2023-02-13T13:06:57.638Z,35.72
2023-02-13T13:10:01.889Z,33.83
2023-02-13T13:12:38.137Z,35.97
2023-02-13T13:15:41.313Z,32.35
2023-02-13T13:20:56.862Z,31.90
2023-02-13T13:23:43.580Z,34.70
2023-02-13T13:26:36.530Z,31.83
2023-02-13T13:29:28.307Z,29.98
2023-02-13T13:32:07.049Z,33.53
2023-02-13T13:34:35.722Z,34.72
2023-02-13T13:37:14.460Z,34.30
2023-02-13T13:40:04.595Z,32.33
2023-02-13T13:42:42.775Z,28.08
2023-02-13T13:45:51.551Z,32.80
2023-02-13T13:48:33.956Z,31.48
2023-02-13T13:51:01.759Z,24.67
2023-02-13T13:53:29.893Z,33.05
2023-02-13T13:55:58.685Z,30.45
2023-02-13T13:58:35.412Z,34.53
2023-02-13T14:01:25.825Z,32.33
2023-02-13T14:03:58.625Z,32.47
2023-02-13T14:06:28.210Z,30.88
2023-02-13T14:08:58.739Z,33.85
2023-02-13T14:11:32.689Z,34.78
2023-02-13T14:14:01.224Z,35.45
2023-02-13T14:16:47.652Z,33.10
2023-02-13T14:19:34.768Z,32.05
2023-02-13T14:22:25.130Z,31.25
2023-02-13T14:24:53.373Z,27.67
2023-02-13T14:27:25.019Z,29.85
2023-02-13T14:29:53.175Z,30.77
2023-02-13T14:32:31.985Z,29.80
2023-02-13T14:35:26.660Z,32.10
2023-02-13T14:37:59.628Z,33.40
2023-02-13T14:40:44.405Z,33.85
2023-02-13T14:43:21.605Z,36.13
2023-02-13T14:46:06.109Z,33.70
2023-02-13T14:48:54.327Z,37.17
2023-02-13T14:51:35.527Z,33.13
2023-02-13T14:54:24.070Z,26.38
2023-02-13T14:56:52.819Z,32.38
2023-02-13T14:59:25.030Z,31.70
2023-02-13T15:02:10.299Z,32.05
2023-02-13T15:04:49.427Z,34.38
2023-02-13T15:07:23.813Z,33.63
2023-02-13T15:09:54.162Z,35.80
2023-02-13T15:12:35.859Z,39.33
2023-02-13T15:15:24.227Z,33.50
2023-02-13T15:17:59.118Z,40.78
2023-02-13T15:20:35.189Z,45.25
2023-02-13T15:23:03.284Z,40.65
2023-02-13T15:25:34.977Z,42.38
2023-02-13T15:28:04.299Z,44.15
2023-02-13T15:30:37.349Z,41.70
2023-02-13T15:33:27.191Z,45.17
2023-02-13T15:36:02.879Z,44.17
2023-02-13T15:38:36.825Z,37.05
2023-02-13T15:41:13.643Z,37.63
2023-02-13T15:43:44.306Z,39.78
2023-02-13T15:46:26.280Z,39.65
2023-02-13T15:48:54.898Z,33.92
2023-02-13T15:51:31.859Z,36.38
2023-02-13T15:54:01.352Z,40.22
2023-02-13T15:56:29.548Z,33.53
2023-02-13T15:58:58.165Z,38.95
2023-02-13T16:01:26.228Z,41.03
2023-02-13T16:04:07.659Z,39.70
2023-02-13T16:06:35.844Z,35.05
2023-02-13T16:09:04.205Z,35.35
2023-02-13T16:11:38.804Z,35.33
2023-02-13T16:14:16.134Z,36.38
2023-02-13T16:16:47.019Z,35.22
2023-02-13T16:19:29.313Z,34.53
2023-02-13T16:21:58.229Z,34.95
2023-02-13T16:24:26.754Z,32.67
2023-02-13T16:26:54.976Z,36.20
2023-02-13T16:29:24.342Z,38.13
2023-02-13T16:31:52.992Z,36.90
2023-02-13T16:34:26.788Z,40.72
2023-02-13T16:36:55.213Z,40.03
2023-02-13T16:39:33.456Z,38.72
2023-02-13T16:42:01.534Z,65.05
2023-02-13T16:44:33.530Z,69.28
2023-02-13T16:47:02.702Z,84.30
2023-02-13T16:49:37.220Z,82.47
2023-02-13T16:52:40.937Z,77.15
2023-02-13T16:55:15.440Z,76.47
2023-02-13T16:57:44.998Z,64.78
2023-02-13T17:00:23.151Z,62.83
2023-02-13T17:02:52.541Z,65.45
2023-02-13T17:05:25.975Z,67.07
2023-02-13T17:07:57.344Z,70.45
2023-02-13T17:10:36.249Z,56.93
2023-02-13T17:13:14.241Z,70.75
2023-02-13T17:15:44.643Z,71.63
2023-02-13T17:18:12.732Z,70.32
2023-02-13T17:20:44.518Z,71.60
2023-02-13T17:23:18.354Z,69.07
2023-02-13T17:25:49.978Z,81.10
2023-02-13T17:28:19.452Z,68.73
2023-02-13T17:30:48.293Z,76.60
2023-02-13T17:33:20.273Z,92.90
2023-02-13T17:35:48.276Z,107.30
2023-02-13T17:38:16.148Z,92.78
2023-02-13T17:40:44.350Z,84.07
2023-02-13T17:43:13.148Z,86.32
2023-02-13T17:45:41.387Z,95.60
2023-02-13T17:48:09.138Z,80.78
2023-02-13T17:50:37.257Z,61.70
2023-02-13T17:53:06.236Z,64.90
2023-02-13T17:55:34.616Z,68.35
2023-02-13T17:58:02.574Z,55.45
2023-02-13T18:00:31.786Z,55.15
2023-02-13T18:03:00.380Z,55.25
2023-02-13T18:05:28.961Z,56.92
2023-02-13T18:07:56.822Z,58.15
2023-02-13T18:10:28.181Z,54.40
2023-02-13T18:12:57.815Z,59.20
2023-02-13T18:15:25.887Z,57.65
2023-02-13T18:17:53.757Z,55.90
2023-02-13T18:20:21.813Z,59.80
2023-02-13T18:22:52.834Z,58.95
2023-02-13T18:25:21.247Z,67.57
2023-02-13T18:27:49.230Z,69.40
2023-02-13T18:30:18.754Z,69.10
2023-02-13T18:32:47.043Z,71.68
2023-02-13T18:35:15.243Z,73.18
2023-02-13T18:37:43.005Z,82.72
2023-02-13T18:40:11.321Z,86.78
2023-02-13T18:42:39.499Z,80.72
2023-02-13T18:45:07.735Z,89.95
2023-02-13T18:47:35.433Z,87.45
2023-02-13T18:50:03.557Z,83.60
2023-02-13T18:52:31.408Z,80.50
2023-02-13T18:54:59.162Z,81.38
2023-02-13T18:57:27.256Z,81.60
2023-02-13T18:59:55.101Z,80.75
2023-02-13T19:02:23.728Z,73.78
2023-02-13T19:04:51.512Z,81.32
2023-02-13T19:15:56.798Z,47.63
2023-02-13T19:18:25.038Z,47.15
2023-02-13T19:20:53.010Z,49.15
2023-02-13T19:23:21.058Z,54.30
2023-02-13T19:25:48.813Z,52.60
2023-02-13T19:28:16.582Z,57.40
2023-02-13T19:30:44.824Z,56.08
2023-02-13T19:33:12.551Z,57.22
2023-02-13T19:35:40.953Z,50.10
2023-02-13T19:38:08.976Z,49.03
2023-02-13T19:40:37.298Z,47.75
2023-02-13T19:43:05.436Z,49.75
2023-02-13T19:45:33.867Z,45.72
2023-02-13T19:48:02.280Z,54.75
2023-02-13T19:50:30.689Z,57.65
2023-02-13T19:52:58.703Z,52.47
2023-02-13T19:55:27.884Z,54.20
2023-02-13T19:57:55.732Z,58.40
2023-02-13T20:00:23.576Z,59.13
2023-02-13T20:02:51.357Z,64.68
2023-02-13T20:05:19.807Z,65.93
2023-02-13T20:07:47.949Z,57.00
2023-02-13T20:10:15.953Z,58.65
2023-02-13T20:12:44.045Z,57.90
2023-02-13T20:15:11.782Z,55.78
2023-02-13T20:17:39.987Z,53.42
2023-02-13T20:20:08.607Z,52.75
2023-02-13T20:22:36.275Z,47.78
2023-02-13T20:25:04.661Z,49.95
2023-02-13T20:27:32.750Z,51.33
2023-02-13T20:30:07.072Z,48.95
2023-02-13T20:32:36.104Z,51.20
2023-02-13T20:35:04.473Z,47.35
2023-02-13T20:37:32.764Z,44.88
2023-02-13T20:40:01.207Z,51.92
2023-02-13T20:42:28.922Z,49.75
2023-02-13T20:44:57.187Z,51.50
2023-02-13T20:47:25.058Z,50.97
2023-02-13T20:49:52.942Z,49.58
2023-02-13T20:52:21.206Z,43.67
2023-02-13T20:54:49.048Z,45.88
2023-02-13T20:57:17.069Z,45.13
2023-02-13T20:59:48.017Z,40.97
2023-02-13T21:02:16.786Z,34.55
2023-02-13T21:04:44.506Z,42.17
2023-02-13T21:07:12.895Z,39.25
2023-02-13T21:09:40.784Z,40.97
2023-02-13T21:12:08.616Z,41.58
2023-02-13T21:14:36.464Z,42.05
2023-02-13T21:17:04.233Z,40.85
2023-02-13T21:19:32.513Z,37.53
2023-02-13T21:22:12.564Z,46.17
2023-02-13T21:24:41.192Z,40.75
2023-02-13T21:27:09.412Z,39.55
2023-02-13T21:29:38.382Z,41.63
2023-02-13T21:32:06.966Z,44.25
2023-02-13T21:34:35.064Z,43.13
2023-02-13T21:37:02.833Z,49.75
2023-02-13T21:39:30.930Z,58.55
2023-02-13T21:41:59.046Z,54.35
2023-02-13T21:44:27.033Z,59.33
2023-02-13T21:46:54.904Z,58.35
2023-02-13T21:49:22.633Z,53.17
2023-02-13T21:51:50.652Z,48.50
2023-02-13T21:54:18.609Z,42.85
2023-02-13T21:56:46.720Z,39.75
2023-02-13T21:59:17.913Z,40.95
2023-02-13T22:01:47.485Z,37.22
2023-02-13T22:04:15.874Z,38.58
2023-02-13T22:06:44.347Z,40.97
2023-02-13T22:09:13.915Z,40.22
2023-02-13T22:11:42.071Z,43.65
2023-02-13T22:14:12.958Z,39.15
2023-02-13T22:16:42.852Z,40.58
2023-02-13T22:19:15.507Z,40.33
2023-02-13T22:21:43.431Z,39.50
2023-02-13T22:24:11.964Z,38.92
2023-02-13T22:26:40.778Z,37.35
2023-02-13T22:29:10.157Z,36.53
2023-02-13T22:31:38.384Z,39.15
2023-02-13T22:34:06.569Z,38.10
2023-02-13T22:36:36.059Z,41.53
2023-02-13T22:39:03.676Z,45.05
2023-02-13T22:41:31.620Z,43.80
2023-02-13T22:43:59.556Z,39.92
2023-02-13T22:46:30.397Z,40.53
2023-02-13T22:48:58.972Z,40.72
2023-02-13T22:51:32.243Z,39.65
2023-02-13T22:54:00.615Z,39.90
2023-02-13T22:56:28.916Z,41.15
2023-02-13T22:58:56.909Z,41.20
2023-02-13T23:01:26.105Z,42.80
2023-02-13T23:03:54.529Z,43.63
2023-02-13T23:06:22.969Z,41.38
2023-02-13T23:08:52.943Z,41.90
2023-02-13T23:11:41.521Z,41.13
2023-02-13T23:14:10.768Z,37.40
2023-02-13T23:17:00.422Z,39.28
2023-02-13T23:19:30.175Z,38.28
2023-02-13T23:21:58.455Z,37.83
2023-02-13T23:24:26.915Z,35.58
2023-02-13T23:26:55.045Z,37.45
2023-02-13T23:29:23.165Z,35.35
2023-02-13T23:31:51.360Z,37.53
2023-02-13T23:34:19.635Z,36.45
2023-02-13T23:36:47.578Z,38.72
2023-02-13T23:39:15.348Z,38.95
2023-02-13T23:41:43.379Z,40.50
2023-02-13T23:44:11.226Z,38.10
2023-02-13T23:46:39.457Z,43.80
2023-02-13T23:49:07.659Z,43.63
2023-02-13T23:51:35.600Z,47.38
2023-02-13T23:54:04.312Z,50.03
2023-02-13T23:56:32.116Z,44.22
2023-02-13T23:59:00.239Z,47.22
